Terminal Aerodrome Forecast
Issued by NWS Lubbock, TX

Home | Current Version | Previous Version | Text Only | Print | Product List | Glossary On
Versions: 1 2 3 4 5 6 7 8 9 10 11 12 13 14 15 16 17 18 19
000
FTUS44 KLUB 172327
TAFLBB
TAF
KLBB 172327Z 1800/1824 13008KT P6SM -SHRA SCT030 OVC080
     FM180500 VRB05KT P6SM -SHRA BKN010 BKN150
     FM181100 VRB05KT 1/2SM FG OVC003
     FM181600 23011KT P6SM SCT030 SCT150=

USA.gov is the U.S. government's official web portal to all federal, state and local government web resources and services.